LiveATC.Net - Listen to live air traffic control over the Internet!


ICAO: ENBO  IATA: BOO   Airport: Bodo Airport
City: Bodo
Country: Norway   Continent: Europe
ENBO METAR Weather: ENBO 181320Z 26005KT 9999 -RA FEW025 BKN045 09/M00 Q1032 NOSIG
ENBO Flight Activity (FlightAware)

ENBO Approach
Feed Status: DOWN
Last heard on: 2019-03-24 11:44:02 (25 days 1 hours 47 minutes ago)
ENBO Approach Audio Archives
FacilityFrequency
Bodo Approach119.700

ENBO Tower
Feed Status: DOWN
Last heard on: 2019-03-24 11:44:02 (25 days 1 hours 47 minutes ago)
ENBO Tower Audio Archives
FacilityFrequency
Bodo Tower118.100

NOTICE

Unauthorized use prohibited. See LiveATC.net Terms of Service


Find LiveATC Audio Streams


Airport/ARTCC Code

Frequency Search
(e.g., 124.400, 128.75)
Site-wide search
 


Browse LiveATC Feeds
Top 50 LiveATC Feeds
LiveATC Feed Map
Bad Weather Areas

LiveATC FAQ
Offer LiveATC feed
Contact LiveATC.net
Press Inquiries

LiveATC on iPhone
LiveATC on Android

Windows Phone
Windows 8/10

LiveATC Mobile
(Mobile browser)

ATC Audio Archives
Interesting Recordings

LiveATC Forums


Home Page
About LiveATC.net
Make a Donation
Terms of Use
Privacy Policy

Canadian Air Freqs

AIRMETs/SIGMETs

FAA Airport Status
Nat'l Airspace Status
Arrival Demand Charts


Server Software By:
Icecast.org
Liquidsoap